Hendrix, Mississippi
Current Conditions -  °F | °C
As of 12:53 PM on Friday 21 Nov 2014 (Local Time) from KGWO Reporting Station
Clear Clear  
Wind Chill: 71°   Ceiling: Unl
Heat Index: 71°   Visibility: 10mi
Dew Point: 45°   Wind: 13mph
Humidity: 39%   Direction: 140°SE
Pressure: 30.25"   Gusts: NA
Location:  33.3807°N, 89.5554°W
Report Text: KGWO 211853Z AUTO 14011KT 10SM CLR 22/07 A3025 RMK AO2 SLP242 T02170072 TSNO
Loading
Personal Weather Stations






























Interactive Weather Map New forecast layout! Learn more

10-Day Weather Forecast

Advertisements
Track Severe Weather on mobile